sensor_id;sensor_type;location;lat;lon;timestamp;temperature;humidity
39951;DHT22;25629;51.444;-2.606;2023-09-08T00:01:18;23.80;1.00
39951;DHT22;25629;51.444;-2.606;2023-09-08T00:03:45;23.80;1.00
39951;DHT22;25629;51.444;-2.606;2023-09-08T00:06:10;23.70;1.00
39951;DHT22;25629;51.444;-2.606;2023-09-08T00:08:36;23.70;1.00
39951;DHT22;25629;51.444;-2.606;2023-09-08T00:11:01;23.70;1.00
39951;DHT22;25629;51.444;-2.606;2023-09-08T00:13:27;23.60;1.00
39951;DHT22;25629;51.444;-2.606;2023-09-08T00:15:53;23.60;1.00
39951;DHT22;25629;51.444;-2.606;2023-09-08T00:18:18;23.60;1.00
39951;DHT22;25629;51.444;-2.606;2023-09-08T00:20:44;23.50;1.00
39951;DHT22;25629;51.444;-2.606;2023-09-08T00:23:09;23.50;1.00
39951;DHT22;25629;51.444;-2.606;2023-09-08T00:25:35;23.50;1.00
39951;DHT22;25629;51.444;-2.606;2023-09-08T00:28:00;23.40;1.00
39951;DHT22;25629;51.444;-2.606;2023-09-08T00:30:26;23.40;1.00
39951;DHT22;25629;51.444;-2.606;2023-09-08T00:32:51;23.40;1.00
39951;DHT22;25629;51.444;-2.606;2023-09-08T00:35:17;23.30;1.00
39951;DHT22;25629;51.444;-2.606;2023-09-08T00:37:42;23.30;1.00
39951;DHT22;25629;51.444;-2.606;2023-09-08T00:40:09;23.30;1.00
39951;DHT22;25629;51.444;-2.606;2023-09-08T00:42:35;23.30;1.00
39951;DHT22;25629;51.444;-2.606;2023-09-08T00:45:01;23.20;1.00
39951;DHT22;25629;51.444;-2.606;2023-09-08T00:47:26;23.20;1.00
39951;DHT22;25629;51.444;-2.606;2023-09-08T00:49:52;23.20;2.80
39951;DHT22;25629;51.444;-2.606;2023-09-08T00:52:17;23.20;3.50
39951;DHT22;25629;51.444;-2.606;2023-09-08T00:54:43;23.20;1.00
39951;DHT22;25629;51.444;-2.606;2023-09-08T00:57:09;23.20;1.00
39951;DHT22;25629;51.444;-2.606;2023-09-08T00:59:35;23.20;1.00
39951;DHT22;25629;51.444;-2.606;2023-09-08T01:02:01;23.10;1.00
39951;DHT22;25629;51.444;-2.606;2023-09-08T01:04:27;23.10;1.00
39951;DHT22;25629;51.444;-2.606;2023-09-08T01:06:53;23.10;1.00
39951;DHT22;25629;51.444;-2.606;2023-09-08T01:09:19;23.00;1.00
39951;DHT22;25629;51.444;-2.606;2023-09-08T01:11:45;23.00;1.00
39951;DHT22;25629;51.444;-2.606;2023-09-08T01:14:14;23.00;1.00
39951;DHT22;25629;51.444;-2.606;2023-09-08T01:16:42;22.90;1.00
39951;DHT22;25629;51.444;-2.606;2023-09-08T01:19:10;22.90;1.00
39951;DHT22;25629;51.444;-2.606;2023-09-08T01:21:44;22.80;1.00
39951;DHT22;25629;51.444;-2.606;2023-09-08T01:26:41;22.80;1.00
39951;DHT22;25629;51.444;-2.606;2023-09-08T01:29:08;22.70;3.90
39951;DHT22;25629;51.444;-2.606;2023-09-08T01:31:34;22.70;10.70
39951;DHT22;25629;51.444;-2.606;2023-09-08T01:34:00;22.70;15.60
39951;DHT22;25629;51.444;-2.606;2023-09-08T01:36:26;22.70;18.10
39951;DHT22;25629;51.444;-2.606;2023-09-08T01:38:52;22.70;13.50
39951;DHT22;25629;51.444;-2.606;2023-09-08T01:41:17;22.70;15.20
39951;DHT22;25629;51.444;-2.606;2023-09-08T01:43:43;22.70;13.50
39951;DHT22;25629;51.444;-2.606;2023-09-08T01:46:09;22.60;13.30
39951;DHT22;25629;51.444;-2.606;2023-09-08T01:48:34;22.70;13.70
39951;DHT22;25629;51.444;-2.606;2023-09-08T01:51:00;22.70;18.50
39951;DHT22;25629;51.444;-2.606;2023-09-08T01:53:25;22.70;21.50
39951;DHT22;25629;51.444;-2.606;2023-09-08T01:55:51;22.60;23.70
39951;DHT22;25629;51.444;-2.606;2023-09-08T01:58:16;22.60;24.80
39951;DHT22;25629;51.444;-2.606;2023-09-08T02:00:42;22.60;16.90
39951;DHT22;25629;51.444;-2.606;2023-09-08T02:03:08;22.60;3.80
39951;DHT22;25629;51.444;-2.606;2023-09-08T02:05:33;22.50;1.00
39951;DHT22;25629;51.444;-2.606;2023-09-08T02:08:04;22.50;1.00
39951;DHT22;25629;51.444;-2.606;2023-09-08T02:10:30;22.50;1.00
39951;DHT22;25629;51.444;-2.606;2023-09-08T02:12:55;22.40;1.00
39951;DHT22;25629;51.444;-2.606;2023-09-08T02:15:21;22.30;1.00
39951;DHT22;25629;51.444;-2.606;2023-09-08T02:17:48;22.20;1.00
39951;DHT22;25629;51.444;-2.606;2023-09-08T02:20:14;22.30;1.00
39951;DHT22;25629;51.444;-2.606;2023-09-08T02:22:40;22.20;1.00
39951;DHT22;25629;51.444;-2.606;2023-09-08T02:25:05;22.10;1.00
39951;DHT22;25629;51.444;-2.606;2023-09-08T02:27:31;22.10;13.60
39951;DHT22;25629;51.444;-2.606;2023-09-08T02:29:56;22.10;17.20
39951;DHT22;25629;51.444;-2.606;2023-09-08T02:32:22;22.10;17.90
39951;DHT22;25629;51.444;-2.606;2023-09-08T02:34:48;22.10;19.70
39951;DHT22;25629;51.444;-2.606;2023-09-08T02:37:14;22.10;19.90
39951;DHT22;25629;51.444;-2.606;2023-09-08T02:39:40;22.10;20.40
39951;DHT22;25629;51.444;-2.606;2023-09-08T02:42:06;22.10;29.50
39951;DHT22;25629;51.444;-2.606;2023-09-08T02:44:31;22.00;32.80
39951;DHT22;25629;51.444;-2.606;2023-09-08T02:46:57;22.10;31.10
39951;DHT22;25629;51.444;-2.606;2023-09-08T02:49:23;22.00;35.80
39951;DHT22;25629;51.444;-2.606;2023-09-08T02:51:48;22.00;36.50
39951;DHT22;25629;51.444;-2.606;2023-09-08T02:54:14;22.00;37.80
39951;DHT22;25629;51.444;-2.606;2023-09-08T02:56:39;22.00;47.10
39951;DHT22;25629;51.444;-2.606;2023-09-08T02:59:05;22.10;50.60
39951;DHT22;25629;51.444;-2.606;2023-09-08T03:01:31;22.10;47.60
39951;DHT22;25629;51.444;-2.606;2023-09-08T03:03:57;22.10;35.50
39951;DHT22;25629;51.444;-2.606;2023-09-08T03:06:23;22.10;29.10
39951;DHT22;25629;51.444;-2.606;2023-09-08T03:08:48;22.00;20.20
39951;DHT22;25629;51.444;-2.606;2023-09-08T03:11:14;22.00;18.00
39951;DHT22;25629;51.444;-2.606;2023-09-08T03:13:39;22.00;4.50
39951;DHT22;25629;51.444;-2.606;2023-09-08T03:16:05;22.00;1.50
39951;DHT22;25629;51.444;-2.606;2023-09-08T03:18:35;22.00;3.50
39951;DHT22;25629;51.444;-2.606;2023-09-08T03:21:02;22.00;1.00
39951;DHT22;25629;51.444;-2.606;2023-09-08T03:23:42;22.00;1.00
39951;DHT22;25629;51.444;-2.606;2023-09-08T03:26:08;22.00;1.00
39951;DHT22;25629;51.444;-2.606;2023-09-08T03:28:34;22.00;1.00
39951;DHT22;25629;51.444;-2.606;2023-09-08T03:31:01;21.60;1.00
39951;DHT22;25629;51.444;-2.606;2023-09-08T03:33:27;21.90;1.00
39951;DHT22;25629;51.444;-2.606;2023-09-08T03:35:52;20.60;13.50
39951;DHT22;25629;51.444;-2.606;2023-09-08T03:38:18;21.90;21.50
39951;DHT22;25629;51.444;-2.606;2023-09-08T03:40:44;23.90;13.90
39951;DHT22;25629;51.444;-2.606;2023-09-08T03:43:10;21.90;5.50
39951;DHT22;25629;51.444;-2.606;2023-09-08T03:45:36;20.30;3.90
39951;DHT22;25629;51.444;-2.606;2023-09-08T03:48:02;21.90;10.00
39951;DHT22;25629;51.444;-2.606;2023-09-08T03:50:27;22.00;11.20
39951;DHT22;25629;51.444;-2.606;2023-09-08T03:52:53;21.90;11.90
39951;DHT22;25629;51.444;-2.606;2023-09-08T03:55:19;21.90;16.40
39951;DHT22;25629;51.444;-2.606;2023-09-08T03:57:45;22.10;11.60
39951;DHT22;25629;51.444;-2.606;2023-09-08T04:00:11;21.60;10.40
39951;DHT22;25629;51.444;-2.606;2023-09-08T04:02:37;21.80;7.40
39951;DHT22;25629;51.444;-2.606;2023-09-08T04:05:03;21.80;14.00
39951;DHT22;25629;51.444;-2.606;2023-09-08T04:07:29;20.70;13.60
39951;DHT22;25629;51.444;-2.606;2023-09-08T04:09:54;22.00;16.80
39951;DHT22;25629;51.444;-2.606;2023-09-08T04:12:20;22.40;18.90
39951;DHT22;25629;51.444;-2.606;2023-09-08T04:14:46;21.70;20.70
39951;DHT22;25629;51.444;-2.606;2023-09-08T04:17:12;21.90;28.60
39951;DHT22;25629;51.444;-2.606;2023-09-08T04:19:38;21.70;39.70
39951;DHT22;25629;51.444;-2.606;2023-09-08T04:22:03;21.80;39.10
39951;DHT22;25629;51.444;-2.606;2023-09-08T04:24:29;24.00;40.10
39951;DHT22;25629;51.444;-2.606;2023-09-08T04:26:55;21.80;43.90
39951;DHT22;25629;51.444;-2.606;2023-09-08T04:29:20;21.60;45.40
39951;DHT22;25629;51.444;-2.606;2023-09-08T04:31:46;19.40;44.10
39951;DHT22;25629;51.444;-2.606;2023-09-08T04:34:12;22.00;51.90
39951;DHT22;25629;51.444;-2.606;2023-09-08T04:36:38;21.90;45.90
39951;DHT22;25629;51.444;-2.606;2023-09-08T04:39:04;21.20;50.60
39951;DHT22;25629;51.444;-2.606;2023-09-08T04:41:30;21.70;46.00
39951;DHT22;25629;51.444;-2.606;2023-09-08T04:43:55;21.40;42.70
39951;DHT22;25629;51.444;-2.606;2023-09-08T04:46:23;21.60;41.00
39951;DHT22;25629;51.444;-2.606;2023-09-08T04:48:49;22.10;33.70
39951;DHT22;25629;51.444;-2.606;2023-09-08T04:51:15;22.00;34.60
39951;DHT22;25629;51.444;-2.606;2023-09-08T04:53:40;21.80;36.40
39951;DHT22;25629;51.444;-2.606;2023-09-08T04:56:06;21.60;36.40
39951;DHT22;25629;51.444;-2.606;2023-09-08T04:58:32;21.60;36.60
39951;DHT22;25629;51.444;-2.606;2023-09-08T05:00:58;21.80;38.90
39951;DHT22;25629;51.444;-2.606;2023-09-08T05:03:24;22.20;41.10
39951;DHT22;25629;51.444;-2.606;2023-09-08T05:05:51;21.80;38.80
39951;DHT22;25629;51.444;-2.606;2023-09-08T05:08:17;21.70;27.50
39951;DHT22;25629;51.444;-2.606;2023-09-08T05:10:46;21.50;23.90
39951;DHT22;25629;51.444;-2.606;2023-09-08T05:13:17;22.10;19.70
39951;DHT22;25629;51.444;-2.606;2023-09-08T05:15:43;21.90;20.80
39951;DHT22;25629;51.444;-2.606;2023-09-08T05:18:13;21.50;21.80
39951;DHT22;25629;51.444;-2.606;2023-09-08T05:20:39;21.60;22.30
39951;DHT22;25629;51.444;-2.606;2023-09-08T05:23:05;20.90;38.40
39951;DHT22;25629;51.444;-2.606;2023-09-08T05:25:31;20.30;42.00
39951;DHT22;25629;51.444;-2.606;2023-09-08T05:27:57;21.00;44.20
39951;DHT22;25629;51.444;-2.606;2023-09-08T05:30:23;21.70;41.90
39951;DHT22;25629;51.444;-2.606;2023-09-08T05:32:48;21.60;44.40
39951;DHT22;25629;51.444;-2.606;2023-09-08T05:35:14;21.30;50.60
39951;DHT22;25629;51.444;-2.606;2023-09-08T05:37:40;22.50;47.50
39951;DHT22;25629;51.444;-2.606;2023-09-08T05:40:06;21.60;45.30
39951;DHT22;25629;51.444;-2.606;2023-09-08T05:42:32;21.70;23.30
39951;DHT22;25629;51.444;-2.606;2023-09-08T05:44:58;21.80;28.00
39951;DHT22;25629;51.444;-2.606;2023-09-08T05:47:23;22.80;25.60
39951;DHT22;25629;51.444;-2.606;2023-09-08T05:49:49;21.60;27.60
39951;DHT22;25629;51.444;-2.606;2023-09-08T05:52:15;21.80;27.20
39951;DHT22;25629;51.444;-2.606;2023-09-08T05:54:41;21.30;27.20
39951;DHT22;25629;51.444;-2.606;2023-09-08T05:57:06;21.70;26.90
39951;DHT22;25629;51.444;-2.606;2023-09-08T05:59:32;22.00;25.00
39951;DHT22;25629;51.444;-2.606;2023-09-08T06:01:58;21.90;12.30
39951;DHT22;25629;51.444;-2.606;2023-09-08T06:04:24;21.80;9.20
39951;DHT22;25629;51.444;-2.606;2023-09-08T06:06:49;21.90;20.00
39951;DHT22;25629;51.444;-2.606;2023-09-08T06:09:15;21.90;13.20
39951;DHT22;25629;51.444;-2.606;2023-09-08T06:11:41;22.00;8.00
39951;DHT22;25629;51.444;-2.606;2023-09-08T06:14:07;22.00;1.00
39951;DHT22;25629;51.444;-2.606;2023-09-08T06:16:33;22.00;1.60
39951;DHT22;25629;51.444;-2.606;2023-09-08T06:18:58;22.00;1.00
39951;DHT22;25629;51.444;-2.606;2023-09-08T06:21:24;22.10;1.00
39951;DHT22;25629;51.444;-2.606;2023-09-08T06:23:50;22.10;1.00
39951;DHT22;25629;51.444;-2.606;2023-09-08T06:26:16;22.20;1.00
39951;DHT22;25629;51.444;-2.606;2023-09-08T06:28:41;22.20;1.00
39951;DHT22;25629;51.444;-2.606;2023-09-08T06:31:08;22.20;1.00
39951;DHT22;25629;51.444;-2.606;2023-09-08T06:33:34;22.40;1.00
39951;DHT22;25629;51.444;-2.606;2023-09-08T06:36:00;22.40;1.00
39951;DHT22;25629;51.444;-2.606;2023-09-08T06:38:25;22.40;1.00
39951;DHT22;25629;51.444;-2.606;2023-09-08T06:40:51;22.30;1.00
39951;DHT22;25629;51.444;-2.606;2023-09-08T06:43:18;22.30;1.00
39951;DHT22;25629;51.444;-2.606;2023-09-08T06:45:47;22.30;1.00
39951;DHT22;25629;51.444;-2.606;2023-09-08T06:48:12;22.30;1.00
39951;DHT22;25629;51.444;-2.606;2023-09-08T06:50:38;22.40;1.00
39951;DHT22;25629;51.444;-2.606;2023-09-08T06:53:03;22.30;1.00
39951;DHT22;25629;51.444;-2.606;2023-09-08T06:55:29;22.40;1.00
39951;DHT22;25629;51.444;-2.606;2023-09-08T06:57:54;22.40;1.00
39951;DHT22;25629;51.444;-2.606;2023-09-08T07:00:20;22.50;1.00
39951;DHT22;25629;51.444;-2.606;2023-09-08T07:02:46;22.50;1.00
39951;DHT22;25629;51.444;-2.606;2023-09-08T07:05:11;22.50;1.00
39951;DHT22;25629;51.444;-2.606;2023-09-08T07:07:37;22.60;1.00
39951;DHT22;25629;51.444;-2.606;2023-09-08T07:10:03;22.60;1.00
39951;DHT22;25629;51.444;-2.606;2023-09-08T07:12:29;22.70;1.00
39951;DHT22;25629;51.444;-2.606;2023-09-08T07:14:54;22.70;1.00
39951;DHT22;25629;51.444;-2.606;2023-09-08T07:17:20;22.90;1.00
39951;DHT22;25629;51.444;-2.606;2023-09-08T07:19:46;22.90;99.90
39951;DHT22;25629;51.444;-2.606;2023-09-08T07:22:11;22.90;99.90
39951;DHT22;25629;51.444;-2.606;2023-09-08T07:24:37;23.00;99.90
39951;DHT22;25629;51.444;-2.606;2023-09-08T07:27:02;23.10;99.90
39951;DHT22;25629;51.444;-2.606;2023-09-08T07:29:28;23.20;1.00
39951;DHT22;25629;51.444;-2.606;2023-09-08T07:31:53;23.30;1.00
39951;DHT22;25629;51.444;-2.606;2023-09-08T07:34:19;23.30;97.50
39951;DHT22;25629;51.444;-2.606;2023-09-08T07:36:45;23.40;1.00
39951;DHT22;25629;51.444;-2.606;2023-09-08T07:39:10;23.50;1.00
39951;DHT22;25629;51.444;-2.606;2023-09-08T07:41:36;23.50;1.00
39951;DHT22;25629;51.444;-2.606;2023-09-08T07:44:04;23.60;99.90
39951;DHT22;25629;51.444;-2.606;2023-09-08T07:46:30;23.70;99.90
39951;DHT22;25629;51.444;-2.606;2023-09-08T07:48:57;23.80;99.90
39951;DHT22;25629;51.444;-2.606;2023-09-08T07:51:23;23.90;99.30
39951;DHT22;25629;51.444;-2.606;2023-09-08T07:53:48;24.00;63.50
39951;DHT22;25629;51.444;-2.606;2023-09-08T07:56:14;24.10;99.90
39951;DHT22;25629;51.444;-2.606;2023-09-08T07:58:39;24.10;89.60
39951;DHT22;25629;51.444;-2.606;2023-09-08T08:01:05;24.10;1.00
39951;DHT22;25629;51.444;-2.606;2023-09-08T08:03:31;24.00;13.70
39951;DHT22;25629;51.444;-2.606;2023-09-08T08:05:56;24.10;20.70
39951;DHT22;25629;51.444;-2.606;2023-09-08T08:08:22;24.20;44.50
39951;DHT22;25629;51.444;-2.606;2023-09-08T08:10:47;24.30;15.10
39951;DHT22;25629;51.444;-2.606;2023-09-08T08:13:13;24.30;99.90
39951;DHT22;25629;51.444;-2.606;2023-09-08T08:15:40;24.40;99.90
39951;DHT22;25629;51.444;-2.606;2023-09-08T08:18:06;24.60;99.90
39951;DHT22;25629;51.444;-2.606;2023-09-08T08:20:32;24.70;1.00
39951;DHT22;25629;51.444;-2.606;2023-09-08T08:23:01;24.90;1.00
39951;DHT22;25629;51.444;-2.606;2023-09-08T08:25:27;24.90;99.90
39951;DHT22;25629;51.444;-2.606;2023-09-08T08:27:53;25.00;99.90
39951;DHT22;25629;51.444;-2.606;2023-09-08T08:30:18;25.00;99.90
39951;DHT22;25629;51.444;-2.606;2023-09-08T08:32:44;25.00;99.90
39951;DHT22;25629;51.444;-2.606;2023-09-08T08:35:11;25.10;99.90
39951;DHT22;25629;51.444;-2.606;2023-09-08T08:37:39;25.20;99.90
39951;DHT22;25629;51.444;-2.606;2023-09-08T08:40:05;25.30;99.90
39951;DHT22;25629;51.444;-2.606;2023-09-08T08:42:32;25.30;99.90
39951;DHT22;25629;51.444;-2.606;2023-09-08T08:44:58;25.40;99.90
39951;DHT22;25629;51.444;-2.606;2023-09-08T08:47:24;25.50;1.00
39951;DHT22;25629;51.444;-2.606;2023-09-08T08:49:50;25.60;1.00
39951;DHT22;25629;51.444;-2.606;2023-09-08T08:52:16;25.60;1.00
39951;DHT22;25629;51.444;-2.606;2023-09-08T08:54:43;25.70;1.00
39951;DHT22;25629;51.444;-2.606;2023-09-08T08:57:08;25.80;1.00
39951;DHT22;25629;51.444;-2.606;2023-09-08T08:59:34;25.90;99.90
39951;DHT22;25629;51.444;-2.606;2023-09-08T09:02:00;26.10;99.90
39951;DHT22;25629;51.444;-2.606;2023-09-08T09:04:27;26.10;99.90
39951;DHT22;25629;51.444;-2.606;2023-09-08T09:06:53;26.10;99.90
39951;DHT22;25629;51.444;-2.606;2023-09-08T09:09:19;26.20;99.90
39951;DHT22;25629;51.444;-2.606;2023-09-08T09:11:45;26.20;99.90
39951;DHT22;25629;51.444;-2.606;2023-09-08T09:14:10;26.30;99.90
39951;DHT22;25629;51.444;-2.606;2023-09-08T09:16:40;26.30;99.90
39951;DHT22;25629;51.444;-2.606;2023-09-08T09:19:06;26.30;98.30
39951;DHT22;25629;51.444;-2.606;2023-09-08T09:24:06;26.40;67.70
39951;DHT22;25629;51.444;-2.606;2023-09-08T09:26:32;26.40;33.10
39951;DHT22;25629;51.444;-2.606;2023-09-08T09:28:58;26.60;4.80
39951;DHT22;25629;51.444;-2.606;2023-09-08T09:31:24;26.70;5.30
39951;DHT22;25629;51.444;-2.606;2023-09-08T09:34:03;26.90;1.00
39951;DHT22;25629;51.444;-2.606;2023-09-08T09:36:32;27.00;1.00
39951;DHT22;25629;51.444;-2.606;2023-09-08T09:39:01;27.00;1.00
39951;DHT22;25629;51.444;-2.606;2023-09-08T09:41:27;27.10;1.00
39951;DHT22;25629;51.444;-2.606;2023-09-08T09:43:54;27.40;1.00
39951;DHT22;25629;51.444;-2.606;2023-09-08T09:46:19;27.80;1.00
39951;DHT22;25629;51.444;-2.606;2023-09-08T09:48:50;28.00;1.00
39951;DHT22;25629;51.444;-2.606;2023-09-08T09:51:16;28.20;1.00
39951;DHT22;25629;51.444;-2.606;2023-09-08T09:53:45;28.50;1.00
39951;DHT22;25629;51.444;-2.606;2023-09-08T09:56:11;28.70;1.00
39951;DHT22;25629;51.444;-2.606;2023-09-08T09:58:37;29.00;1.00
39951;DHT22;25629;51.444;-2.606;2023-09-08T10:01:03;29.10;1.00
39951;DHT22;25629;51.444;-2.606;2023-09-08T10:03:29;29.20;1.00
39951;DHT22;25629;51.444;-2.606;2023-09-08T10:05:56;29.40;1.00
39951;DHT22;25629;51.444;-2.606;2023-09-08T10:08:22;29.40;1.00
39951;DHT22;25629;51.444;-2.606;2023-09-08T10:10:47;29.40;1.00
39951;DHT22;25629;51.444;-2.606;2023-09-08T10:13:18;29.70;1.00
39951;DHT22;25629;51.444;-2.606;2023-09-08T10:15:46;29.80;1.00
39951;DHT22;25629;51.444;-2.606;2023-09-08T10:18:15;30.10;1.00
39951;DHT22;25629;51.444;-2.606;2023-09-08T10:20:42;30.60;1.00
39951;DHT22;25629;51.444;-2.606;2023-09-08T10:23:26;30.70;99.90
39951;DHT22;25629;51.444;-2.606;2023-09-08T10:25:55;30.50;99.90
39951;DHT22;25629;51.444;-2.606;2023-09-08T10:28:22;30.30;99.90
39951;DHT22;25629;51.444;-2.606;2023-09-08T10:30:47;30.40;99.90
39951;DHT22;25629;51.444;-2.606;2023-09-08T10:33:14;30.40;99.90
39951;DHT22;25629;51.444;-2.606;2023-09-08T10:35:40;30.10;99.90
39951;DHT22;25629;51.444;-2.606;2023-09-08T10:40:47;30.10;99.90
39951;DHT22;25629;51.444;-2.606;2023-09-08T10:43:13;30.30;99.90
39951;DHT22;25629;51.444;-2.606;2023-09-08T10:45:39;30.20;99.90
39951;DHT22;25629;51.444;-2.606;2023-09-08T10:48:06;30.30;99.90
39951;DHT22;25629;51.444;-2.606;2023-09-08T10:50:33;30.40;99.90
39951;DHT22;25629;51.444;-2.606;2023-09-08T10:53:10;30.60;99.90
39951;DHT22;25629;51.444;-2.606;2023-09-08T10:55:50;30.90;99.90
39951;DHT22;25629;51.444;-2.606;2023-09-08T10:58:19;31.10;99.90
39951;DHT22;25629;51.444;-2.606;2023-09-08T11:00:46;31.20;99.90
39951;DHT22;25629;51.444;-2.606;2023-09-08T11:03:12;31.70;99.90
39951;DHT22;25629;51.444;-2.606;2023-09-08T11:05:38;31.70;99.90
39951;DHT22;25629;51.444;-2.606;2023-09-08T11:08:04;31.80;99.90
39951;DHT22;25629;51.444;-2.606;2023-09-08T11:10:30;32.00;99.90
39951;DHT22;25629;51.444;-2.606;2023-09-08T11:12:56;32.00;99.90
39951;DHT22;25629;51.444;-2.606;2023-09-08T11:15:22;31.90;99.90
39951;DHT22;25629;51.444;-2.606;2023-09-08T11:17:47;31.70;99.90
39951;DHT22;25629;51.444;-2.606;2023-09-08T11:20:16;31.80;99.90
39951;DHT22;25629;51.444;-2.606;2023-09-08T11:22:42;31.80;99.90
39951;DHT22;25629;51.444;-2.606;2023-09-08T11:25:09;31.80;99.90
39951;DHT22;25629;51.444;-2.606;2023-09-08T11:27:38;31.90;99.90
39951;DHT22;25629;51.444;-2.606;2023-09-08T11:30:05;32.20;99.90
39951;DHT22;25629;51.444;-2.606;2023-09-08T11:32:32;32.50;99.90
39951;DHT22;25629;51.444;-2.606;2023-09-08T11:35:04;32.80;99.90
39951;DHT22;25629;51.444;-2.606;2023-09-08T11:37:30;32.80;99.90
39951;DHT22;25629;51.444;-2.606;2023-09-08T11:39:56;32.60;99.90
39951;DHT22;25629;51.444;-2.606;2023-09-08T11:42:22;32.40;99.90
39951;DHT22;25629;51.444;-2.606;2023-09-08T11:44:47;32.10;99.90
39951;DHT22;25629;51.444;-2.606;2023-09-08T11:47:13;31.90;99.90
39951;DHT22;25629;51.444;-2.606;2023-09-08T11:49:41;31.90;99.90
39951;DHT22;25629;51.444;-2.606;2023-09-08T11:52:07;31.80;99.90
39951;DHT22;25629;51.444;-2.606;2023-09-08T11:54:36;32.10;99.90
39951;DHT22;25629;51.444;-2.606;2023-09-08T11:57:03;32.00;99.90
39951;DHT22;25629;51.444;-2.606;2023-09-08T11:59:33;31.90;99.90
39951;DHT22;25629;51.444;-2.606;2023-09-08T12:01:59;32.10;99.90
39951;DHT22;25629;51.444;-2.606;2023-09-08T12:04:25;32.30;99.90
39951;DHT22;25629;51.444;-2.606;2023-09-08T12:06:52;32.50;99.90
39951;DHT22;25629;51.444;-2.606;2023-09-08T12:09:17;32.70;99.90
39951;DHT22;25629;51.444;-2.606;2023-09-08T12:11:43;33.20;99.90
39951;DHT22;25629;51.444;-2.606;2023-09-08T12:14:13;33.50;99.90
39951;DHT22;25629;51.444;-2.606;2023-09-08T12:16:39;33.60;99.90
39951;DHT22;25629;51.444;-2.606;2023-09-08T12:19:05;33.80;99.90
39951;DHT22;25629;51.444;-2.606;2023-09-08T12:21:31;33.90;99.90
39951;DHT22;25629;51.444;-2.606;2023-09-08T12:23:58;34.10;99.90
39951;DHT22;25629;51.444;-2.606;2023-09-08T12:26:26;34.20;99.90
39951;DHT22;25629;51.444;-2.606;2023-09-08T12:28:52;34.10;99.90
39951;DHT22;25629;51.444;-2.606;2023-09-08T12:31:18;34.10;99.90
39951;DHT22;25629;51.444;-2.606;2023-09-08T12:33:44;34.40;99.90
39951;DHT22;25629;51.444;-2.606;2023-09-08T12:36:13;34.30;99.90
39951;DHT22;25629;51.444;-2.606;2023-09-08T12:38:39;34.50;99.90
39951;DHT22;25629;51.444;-2.606;2023-09-08T12:41:05;34.60;99.90
39951;DHT22;25629;51.444;-2.606;2023-09-08T12:43:30;34.60;99.90
39951;DHT22;25629;51.444;-2.606;2023-09-08T12:45:56;34.60;99.90
39951;DHT22;25629;51.444;-2.606;2023-09-08T12:48:22;34.50;99.90
39951;DHT22;25629;51.444;-2.606;2023-09-08T12:50:48;34.80;99.90
39951;DHT22;25629;51.444;-2.606;2023-09-08T12:53:14;35.00;99.90
39951;DHT22;25629;51.444;-2.606;2023-09-08T12:55:40;35.50;99.90
39951;DHT22;25629;51.444;-2.606;2023-09-08T12:58:05;36.20;99.90
39951;DHT22;25629;51.444;-2.606;2023-09-08T13:00:31;36.50;99.90
39951;DHT22;25629;51.444;-2.606;2023-09-08T13:02:56;36.40;99.90
39951;DHT22;25629;51.444;-2.606;2023-09-08T13:05:22;36.00;99.90
39951;DHT22;25629;51.444;-2.606;2023-09-08T13:07:47;36.40;99.90
39951;DHT22;25629;51.444;-2.606;2023-09-08T13:10:13;36.80;99.90
39951;DHT22;25629;51.444;-2.606;2023-09-08T13:12:38;36.90;99.90
39951;DHT22;25629;51.444;-2.606;2023-09-08T13:15:04;37.10;99.90
39951;DHT22;25629;51.444;-2.606;2023-09-08T13:17:30;37.20;99.90
39951;DHT22;25629;51.444;-2.606;2023-09-08T13:19:55;37.00;99.90
39951;DHT22;25629;51.444;-2.606;2023-09-08T13:22:21;36.60;99.90
39951;DHT22;25629;51.444;-2.606;2023-09-08T13:24:47;36.30;99.90
39951;DHT22;25629;51.444;-2.606;2023-09-08T13:27:13;36.00;99.90
39951;DHT22;25629;51.444;-2.606;2023-09-08T13:29:40;35.40;99.90
39951;DHT22;25629;51.444;-2.606;2023-09-08T13:32:06;35.00;99.90
39951;DHT22;25629;51.444;-2.606;2023-09-08T13:34:31;34.60;99.90
39951;DHT22;25629;51.444;-2.606;2023-09-08T13:36:58;34.40;99.90
39951;DHT22;25629;51.444;-2.606;2023-09-08T13:39:23;34.40;99.90
39951;DHT22;25629;51.444;-2.606;2023-09-08T13:41:55;34.80;99.90
39951;DHT22;25629;51.444;-2.606;2023-09-08T13:44:24;35.50;99.90
39951;DHT22;25629;51.444;-2.606;2023-09-08T13:46:50;35.70;99.90
39951;DHT22;25629;51.444;-2.606;2023-09-08T13:49:16;35.70;99.90
39951;DHT22;25629;51.444;-2.606;2023-09-08T13:51:42;35.80;99.90
39951;DHT22;25629;51.444;-2.606;2023-09-08T13:54:08;36.60;99.90
39951;DHT22;25629;51.444;-2.606;2023-09-08T13:56:33;37.60;99.90
39951;DHT22;25629;51.444;-2.606;2023-09-08T13:58:59;38.10;99.90
39951;DHT22;25629;51.444;-2.606;2023-09-08T14:01:25;38.40;99.90
39951;DHT22;25629;51.444;-2.606;2023-09-08T14:03:53;38.30;99.90
39951;DHT22;25629;51.444;-2.606;2023-09-08T14:06:18;38.40;99.90
39951;DHT22;25629;51.444;-2.606;2023-09-08T14:08:44;38.20;99.90
39951;DHT22;25629;51.444;-2.606;2023-09-08T14:11:10;37.80;99.90
39951;DHT22;25629;51.444;-2.606;2023-09-08T14:13:37;37.40;99.90
39951;DHT22;25629;51.444;-2.606;2023-09-08T14:16:03;36.80;99.90
39951;DHT22;25629;51.444;-2.606;2023-09-08T14:18:28;36.20;99.90
39951;DHT22;25629;51.444;-2.606;2023-09-08T14:20:54;36.10;99.90
39951;DHT22;25629;51.444;-2.606;2023-09-08T14:23:20;35.80;99.90
39951;DHT22;25629;51.444;-2.606;2023-09-08T14:25:45;35.70;99.90
39951;DHT22;25629;51.444;-2.606;2023-09-08T14:28:11;36.00;99.90
39951;DHT22;25629;51.444;-2.606;2023-09-08T14:30:36;35.90;99.90
39951;DHT22;25629;51.444;-2.606;2023-09-08T14:33:02;36.20;99.90
39951;DHT22;25629;51.444;-2.606;2023-09-08T14:35:28;36.40;99.90
39951;DHT22;25629;51.444;-2.606;2023-09-08T14:37:53;36.40;99.90
39951;DHT22;25629;51.444;-2.606;2023-09-08T14:40:21;36.20;99.90
39951;DHT22;25629;51.444;-2.606;2023-09-08T14:42:47;36.20;99.90
39951;DHT22;25629;51.444;-2.606;2023-09-08T14:45:12;36.10;99.90
39951;DHT22;25629;51.444;-2.606;2023-09-08T14:47:38;35.60;99.90
39951;DHT22;25629;51.444;-2.606;2023-09-08T14:50:04;34.60;99.90
39951;DHT22;25629;51.444;-2.606;2023-09-08T14:52:29;33.70;99.90
39951;DHT22;25629;51.444;-2.606;2023-09-08T14:54:55;32.90;99.90
39951;DHT22;25629;51.444;-2.606;2023-09-08T14:57:20;32.50;99.90
39951;DHT22;25629;51.444;-2.606;2023-09-08T14:59:46;32.10;99.90
39951;DHT22;25629;51.444;-2.606;2023-09-08T15:02:12;31.90;99.90
39951;DHT22;25629;51.444;-2.606;2023-09-08T15:04:37;31.60;99.90
39951;DHT22;25629;51.444;-2.606;2023-09-08T15:07:03;31.70;99.90
39951;DHT22;25629;51.444;-2.606;2023-09-08T15:09:28;31.90;99.90
39951;DHT22;25629;51.444;-2.606;2023-09-08T15:11:54;32.50;99.90
39951;DHT22;25629;51.444;-2.606;2023-09-08T15:14:20;33.40;99.90
39951;DHT22;25629;51.444;-2.606;2023-09-08T15:16:45;34.00;99.90
39951;DHT22;25629;51.444;-2.606;2023-09-08T15:19:11;33.70;99.90
39951;DHT22;25629;51.444;-2.606;2023-09-08T15:21:36;33.20;99.90